Armada Tuah 303 — V7ZX5 — position and weather

sailwx.info

Track history (hours):
 
Tides and Currents Weather Stations Pressure Air Temp Water Temp Dewpoint Dewpoint Depression Visibility Wind Speed Wind Dir Waves Ship Positions

Armada Tuah 303

Last reported at 2017-Nov-07 17:51 UTC. Time now 2017-Nov-22 22:12 UTC.
Position N 22°14' E 119°58'.
Warning: this ship's position is 15 days out of date.

Length 75 m; draft 6 m.

Type: Other ship. MMSI: 538004936.

Date/timePositionNaut miles runAvg speedWind from/ knotsBaromVisibWave heightAir tempDewpointWater temp
2017-Nov-07 17:51N 22°14' E 119°58'513.4
2017-Nov-07 17:27N 22°19' E 119°56'613.2
2017-Nov-07 16:59N 22°25' E 119°54'612.8
2017-Nov-07 16:30N 22°31' E 119°52'613.0
2017-Nov-07 16:00N 22°37' E 119°51'712.9
2017-Nov-07 15:28N 22°44' E 119°51'612.9
2017-Nov-07 15:00N 22°50' E 119°51'  
2017-Nov-03 08:51N 23°47' E 120°11'  
2017-Oct-31 06:18N 22°48' E 119°51'712.6
2017-Oct-31 05:46N 22°42' E 119°48'312.7
2017-Oct-31 05:30N 22°39' E 119°46'  
Track history (hours):
 
Tides and Currents Weather Stations Pressure Air Temp Water Temp Dewpoint Dewpoint Depression Visibility Wind Speed Wind Dir Waves Ship Positions

Armada Tuah 303

Last reported at 2017-Nov-07 17:51 UTC. Time now 2017-Nov-22 22:12 UTC.
Position N 22°14' E 119°58'.
Warning: this ship's position is 15 days out of date.

Length 75 m; draft 6 m.

Type: Other ship. MMSI: 538004936.

Date/timePositionNaut miles runAvg speedWind from/ knotsBaromVisibWave heightAir tempDewpointWater temp
2017-Nov-07 17:51N 22°14' E 119°58'513.4
2017-Nov-07 17:27N 22°19' E 119°56'613.2
2017-Nov-07 16:59N 22°25' E 119°54'612.8
2017-Nov-07 16:30N 22°31' E 119°52'613.0
2017-Nov-07 16:00N 22°37' E 119°51'712.9
2017-Nov-07 15:28N 22°44' E 119°51'612.9
2017-Nov-07 15:00N 22°50' E 119°51'  
2017-Nov-03 08:51N 23°47' E 120°11'  
2017-Oct-31 06:18N 22°48' E 119°51'712.6
2017-Oct-31 05:46N 22°42' E 119°48'312.7
2017-Oct-31 05:30N 22°39' E 119°46'  

Dump ship's entire track history